createdAt,value
2022-12-25T00:00:30.630Z,28.40
2022-12-25T00:01:30.627Z,28.90
2022-12-25T00:02:30.790Z,32.00
2022-12-25T00:03:30.969Z,30.30
2022-12-25T00:04:30.833Z,32.70
2022-12-25T00:05:31.146Z,36.20
2022-12-25T00:06:30.448Z,29.00
2022-12-25T00:07:30.425Z,26.80
2022-12-25T00:08:30.461Z,54.70
2022-12-25T00:09:30.803Z,64.70
2022-12-25T00:10:30.878Z,44.20
2022-12-25T00:11:30.383Z,41.50
2022-12-25T00:12:30.360Z,27.90
2022-12-25T00:13:30.470Z,38.50
2022-12-25T00:14:30.283Z,48.60
2022-12-25T00:15:30.375Z,30.40
2022-12-25T00:16:30.231Z,36.30
2022-12-25T00:17:30.405Z,34.10
2022-12-25T00:18:30.399Z,33.40
2022-12-25T00:19:30.221Z,42.00
2022-12-25T00:20:30.532Z,45.60
2022-12-25T00:21:30.355Z,53.90
2022-12-25T00:22:30.134Z,28.70
2022-12-25T00:23:30.658Z,31.80
2022-12-25T00:24:31.093Z,39.60
2022-12-25T00:25:30.087Z,35.50
2022-12-25T00:26:30.169Z,32.60
2022-12-25T00:27:30.171Z,27.60
2022-12-25T00:28:30.197Z,40.90
2022-12-25T00:29:30.118Z,53.10
2022-12-25T00:30:30.095Z,32.00
2022-12-25T00:31:30.046Z,49.50
2022-12-25T00:32:29.917Z,46.50
2022-12-25T00:33:30.225Z,33.20
2022-12-25T00:34:29.934Z,36.10
2022-12-25T00:35:30.022Z,31.70
2022-12-25T00:36:29.956Z,37.00
2022-12-25T00:37:30.756Z,29.00
2022-12-25T00:38:30.139Z,47.90
2022-12-25T00:39:30.477Z,52.10
2022-12-25T00:40:30.047Z,43.80
2022-12-25T00:41:29.982Z,34.60
2022-12-25T00:42:29.986Z,42.60
2022-12-25T00:43:30.066Z,20.60
2022-12-25T00:44:29.973Z,37.50
2022-12-25T00:45:30.035Z,51.50
2022-12-25T00:46:30.055Z,25.70
2022-12-25T00:47:29.792Z,26.70
2022-12-25T00:48:30.032Z,34.20
2022-12-25T00:49:29.851Z,17.00
2022-12-25T00:50:29.828Z,17.00
2022-12-25T00:51:29.821Z,24.40
2022-12-25T00:52:29.965Z,17.60
2022-12-25T00:53:30.059Z,29.30
2022-12-25T00:54:30.258Z,21.20
2022-12-25T00:55:29.749Z,27.10
2022-12-25T00:56:29.654Z,24.60
2022-12-25T00:57:29.785Z,22.70
2022-12-25T00:58:29.806Z,23.40
2022-12-25T00:59:29.592Z,17.00
2022-12-25T01:00:30.080Z,21.60
2022-12-25T01:01:30.136Z,19.60
2022-12-25T01:02:29.886Z,17.40
2022-12-25T01:03:30.308Z,20.30
2022-12-25T01:04:29.606Z,19.90
2022-12-25T01:05:29.739Z,19.00
2022-12-25T01:06:29.511Z,18.50
2022-12-25T01:07:29.550Z,22.50
2022-12-25T01:08:29.544Z,17.30
2022-12-25T01:09:29.571Z,21.20
2022-12-25T01:10:29.557Z,20.00
2022-12-25T01:11:29.673Z,23.50
2022-12-25T01:12:29.468Z,21.00
2022-12-25T01:13:29.505Z,20.40
2022-12-25T01:14:29.472Z,22.40
2022-12-25T01:15:29.438Z,18.00
2022-12-25T01:16:29.488Z,21.40
2022-12-25T01:17:29.603Z,21.40
2022-12-25T01:18:30.364Z,21.60
2022-12-25T01:19:29.541Z,19.50
2022-12-25T01:20:29.341Z,16.50
2022-12-25T01:21:29.329Z,24.90
2022-12-25T01:22:29.242Z,25.20
2022-12-25T01:23:29.335Z,30.00
2022-12-25T01:24:29.333Z,29.50
2022-12-25T01:25:29.372Z,30.00
2022-12-25T01:26:29.366Z,26.20
2022-12-25T01:27:29.254Z,29.20
2022-12-25T01:28:29.295Z,30.70
2022-12-25T01:29:29.273Z,28.40
2022-12-25T01:30:29.189Z,30.60
2022-12-25T01:31:29.296Z,27.30
2022-12-25T01:32:29.291Z,26.70
2022-12-25T01:33:29.130Z,35.10
2022-12-25T01:34:29.229Z,56.20
2022-12-25T01:35:29.116Z,35.90
2022-12-25T01:36:29.139Z,80.60
2022-12-25T01:37:29.149Z,68.10
2022-12-25T01:38:29.250Z,68.80
2022-12-25T01:39:29.059Z,50.40
2022-12-25T01:40:29.063Z,36.30
2022-12-25T01:41:28.954Z,31.10
2022-12-25T01:42:29.163Z,26.00
2022-12-25T01:43:29.118Z,24.70
2022-12-25T01:44:29.011Z,24.40
2022-12-25T01:45:28.920Z,23.70
2022-12-25T01:46:29.003Z,24.50
2022-12-25T01:47:29.115Z,23.00
2022-12-25T01:48:29.509Z,24.10
2022-12-25T01:49:28.916Z,23.80
2022-12-25T01:50:29.022Z,20.50
2022-12-25T01:51:28.873Z,21.80
2022-12-25T01:52:28.940Z,25.90
2022-12-25T01:53:28.956Z,25.00
2022-12-25T01:54:28.955Z,27.10
2022-12-25T01:55:29.873Z,25.30
2022-12-25T01:56:28.912Z,25.20
2022-12-25T01:57:28.974Z,23.90
2022-12-25T01:58:28.857Z,25.80
2022-12-25T01:59:28.997Z,26.40
2022-12-25T02:00:28.879Z,35.40
2022-12-25T02:01:29.287Z,34.60
2022-12-25T02:02:28.934Z,27.20
2022-12-25T02:03:29.160Z,22.00
2022-12-25T02:04:28.956Z,24.40
2022-12-25T02:05:28.828Z,23.80
2022-12-25T02:06:30.257Z,23.50
2022-12-25T02:07:28.648Z,24.80
2022-12-25T02:08:28.866Z,22.90
2022-12-25T02:09:28.878Z,25.70
2022-12-25T02:10:28.759Z,25.10
2022-12-25T02:11:28.767Z,24.90
2022-12-25T02:12:28.786Z,22.20
2022-12-25T02:13:28.680Z,23.50
2022-12-25T02:14:28.770Z,25.20
2022-12-25T02:15:29.313Z,23.80
2022-12-25T02:16:29.168Z,25.40
2022-12-25T02:17:29.471Z,36.40
2022-12-25T02:18:29.418Z,35.40
2022-12-25T02:19:28.840Z,43.20
2022-12-25T02:20:28.754Z,49.10
2022-12-25T02:21:29.017Z,39.70
2022-12-25T02:22:28.721Z,46.20
2022-12-25T02:23:28.563Z,38.10
2022-12-25T02:24:28.568Z,38.70
2022-12-25T02:25:28.679Z,38.80
2022-12-25T02:26:28.857Z,33.50
2022-12-25T02:27:29.079Z,30.80
2022-12-25T02:28:28.641Z,28.80
2022-12-25T02:29:28.702Z,28.50
2022-12-25T02:30:28.443Z,28.40
2022-12-25T02:31:28.724Z,25.10
2022-12-25T02:32:28.586Z,26.60
2022-12-25T02:33:28.311Z,25.40
2022-12-25T02:34:28.908Z,29.80
2022-12-25T02:35:28.823Z,27.50
2022-12-25T02:36:28.544Z,26.80
2022-12-25T02:37:28.882Z,28.40
2022-12-25T02:38:28.659Z,25.10
2022-12-25T02:39:28.852Z,26.60
2022-12-25T02:40:28.586Z,29.10
2022-12-25T02:41:28.281Z,30.80
2022-12-25T02:42:28.828Z,30.90
2022-12-25T02:43:30.335Z,31.60
2022-12-25T02:44:30.507Z,30.90
2022-12-25T02:45:28.910Z,32.00
2022-12-25T02:46:30.746Z,29.80
2022-12-25T02:47:29.731Z,31.90
2022-12-25T02:48:29.636Z,32.00
2022-12-25T02:49:28.733Z,32.30
2022-12-25T02:50:28.958Z,31.50
2022-12-25T02:51:28.947Z,34.40
2022-12-25T02:52:29.134Z,34.10
2022-12-25T02:53:29.470Z,32.50
2022-12-25T02:54:28.587Z,34.50
2022-12-25T02:55:28.781Z,33.90
2022-12-25T02:56:28.448Z,33.50
2022-12-25T02:57:39.766Z,34.10
2022-12-25T02:58:31.042Z,32.20
2022-12-25T02:59:29.632Z,37.90
2022-12-25T03:00:27.998Z,38.80
2022-12-25T03:01:28.327Z,36.70
2022-12-25T03:02:28.070Z,36.40
2022-12-25T03:03:28.278Z,38.30
2022-12-25T03:04:27.944Z,42.30
2022-12-25T03:05:27.934Z,36.90
2022-12-25T03:06:28.397Z,37.00
2022-12-25T03:07:27.936Z,41.90
2022-12-25T03:08:28.050Z,47.80
2022-12-25T03:09:27.943Z,46.00
2022-12-25T03:10:27.838Z,44.30
2022-12-25T03:11:28.186Z,36.70
2022-12-25T03:12:27.887Z,44.70
2022-12-25T03:13:28.707Z,50.70
2022-12-25T03:14:27.880Z,50.30
2022-12-25T03:15:27.935Z,48.40
2022-12-25T03:16:27.949Z,48.60
2022-12-25T03:17:28.235Z,41.50
2022-12-25T03:18:27.827Z,44.10
2022-12-25T03:19:27.739Z,42.60
2022-12-25T03:20:27.824Z,44.70
2022-12-25T03:21:27.915Z,43.90
2022-12-25T03:22:27.841Z,53.50
2022-12-25T03:23:27.674Z,59.40
2022-12-25T03:24:27.765Z,58.00
2022-12-25T03:25:27.962Z,61.50
2022-12-25T03:26:27.672Z,55.20
2022-12-25T03:27:27.668Z,52.40
2022-12-25T03:28:27.681Z,45.80
2022-12-25T03:29:31.786Z,39.30
2022-12-25T03:30:27.636Z,39.00
2022-12-25T03:31:28.221Z,36.70
2022-12-25T03:32:27.830Z,38.30
2022-12-25T03:33:44.503Z,35.60
2022-12-25T03:34:28.760Z,35.10
2022-12-25T03:35:27.622Z,45.80
2022-12-25T03:36:27.534Z,36.00
2022-12-25T03:37:27.774Z,37.80
2022-12-25T03:38:27.642Z,37.60
2022-12-25T03:39:27.535Z,35.70
2022-12-25T03:40:27.453Z,36.90
2022-12-25T03:41:27.537Z,38.30
2022-12-25T03:42:27.492Z,39.10
2022-12-25T03:43:28.420Z,36.90
2022-12-25T03:44:27.291Z,39.80
2022-12-25T03:45:27.408Z,36.70
2022-12-25T03:46:28.574Z,35.90
2022-12-25T03:47:27.316Z,37.80
2022-12-25T03:48:27.530Z,36.70
2022-12-25T03:49:27.508Z,38.90
2022-12-25T03:50:27.353Z,36.10
2022-12-25T03:51:27.415Z,39.50
2022-12-25T03:52:27.328Z,45.30
2022-12-25T03:53:27.246Z,44.90
2022-12-25T03:54:27.453Z,44.60
2022-12-25T03:55:27.248Z,43.00
2022-12-25T03:56:27.260Z,43.80
2022-12-25T03:57:27.347Z,47.40
2022-12-25T03:58:27.264Z,43.90
2022-12-25T03:59:27.379Z,45.90
2022-12-25T04:00:27.204Z,43.20
2022-12-25T04:01:27.359Z,43.60
2022-12-25T04:02:28.660Z,45.60
2022-12-25T04:03:27.249Z,47.80
2022-12-25T04:04:27.204Z,45.30
2022-12-25T04:05:27.556Z,43.90
2022-12-25T04:06:27.358Z,39.50
2022-12-25T04:07:27.349Z,41.80
2022-12-25T04:08:27.329Z,40.50
2022-12-25T04:09:27.241Z,48.40
2022-12-25T04:10:27.059Z,44.30
2022-12-25T04:11:27.042Z,48.10
2022-12-25T04:12:28.717Z,43.30
2022-12-25T04:13:27.072Z,42.70
2022-12-25T04:14:27.499Z,46.80
2022-12-25T04:15:26.900Z,44.50
2022-12-25T04:16:27.042Z,46.80
2022-12-25T04:17:26.993Z,49.20
2022-12-25T04:18:27.127Z,43.00
2022-12-25T04:19:27.024Z,41.00
2022-12-25T04:20:26.927Z,42.20
2022-12-25T04:21:26.935Z,38.40
2022-12-25T04:22:26.921Z,39.50
2022-12-25T04:23:26.964Z,43.10
2022-12-25T04:24:26.841Z,42.60
2022-12-25T04:25:26.939Z,45.80
2022-12-25T04:26:26.869Z,46.40
2022-12-25T04:27:26.766Z,50.10
2022-12-25T04:28:26.877Z,55.60
2022-12-25T04:29:26.797Z,65.50
2022-12-25T04:30:26.689Z,48.80
2022-12-25T04:31:26.956Z,51.30
2022-12-25T04:32:26.815Z,46.00
2022-12-25T04:33:26.967Z,39.80
2022-12-25T04:34:27.083Z,42.20
2022-12-25T04:35:26.716Z,44.70
2022-12-25T04:36:26.911Z,43.30
2022-12-25T04:37:26.641Z,46.40
2022-12-25T04:38:26.936Z,42.80
2022-12-25T04:39:26.642Z,48.30
2022-12-25T04:40:26.659Z,47.40
2022-12-25T04:41:26.674Z,50.10
2022-12-25T04:42:26.788Z,46.00
2022-12-25T04:43:26.958Z,47.00
2022-12-25T04:44:26.489Z,47.20
2022-12-25T04:45:26.586Z,50.20
2022-12-25T04:46:26.918Z,43.70
2022-12-25T04:47:26.611Z,45.50
2022-12-25T04:48:26.508Z,48.00
2022-12-25T04:49:26.835Z,46.30
2022-12-25T04:50:26.517Z,47.30
2022-12-25T04:51:26.517Z,54.20
2022-12-25T04:52:26.438Z,44.50
2022-12-25T04:53:26.567Z,43.10
2022-12-25T04:54:26.444Z,43.50
2022-12-25T04:55:26.359Z,46.60
2022-12-25T04:56:27.273Z,45.10
2022-12-25T04:57:26.469Z,46.20
2022-12-25T04:58:26.460Z,42.10
2022-12-25T04:59:26.476Z,43.10
2022-12-25T05:00:26.401Z,44.30
2022-12-25T05:01:26.383Z,46.00
2022-12-25T05:02:26.487Z,45.60
2022-12-25T05:03:26.357Z,42.40
2022-12-25T05:04:26.513Z,46.40
2022-12-25T05:05:26.225Z,46.50
2022-12-25T05:06:26.420Z,44.40
2022-12-25T05:07:26.209Z,42.80
2022-12-25T05:08:26.349Z,46.20
2022-12-25T05:09:26.342Z,43.40
2022-12-25T05:10:26.176Z,43.90
2022-12-25T05:11:26.256Z,43.80
2022-12-25T05:12:27.136Z,43.90
2022-12-25T05:13:26.182Z,48.00
2022-12-25T05:14:26.082Z,46.10
2022-12-25T05:15:26.097Z,44.20
2022-12-25T05:16:26.286Z,44.80
2022-12-25T05:17:26.301Z,47.10
2022-12-25T05:18:26.309Z,47.60
2022-12-25T05:19:26.314Z,49.00
2022-12-25T05:20:26.139Z,45.40
2022-12-25T05:21:26.228Z,43.80
2022-12-25T05:22:26.133Z,47.60
2022-12-25T05:23:26.151Z,48.00
2022-12-25T05:24:25.947Z,43.10
2022-12-25T05:25:26.061Z,43.90
2022-12-25T05:26:26.167Z,45.20
2022-12-25T05:27:26.084Z,45.30
2022-12-25T05:28:26.234Z,46.00
2022-12-25T05:29:26.185Z,46.60
2022-12-25T05:30:26.199Z,46.10
2022-12-25T05:31:26.160Z,50.90
2022-12-25T05:32:25.904Z,49.20
2022-12-25T05:33:25.923Z,46.20
2022-12-25T05:34:26.115Z,45.60
2022-12-25T05:35:26.243Z,46.60
2022-12-25T05:36:25.944Z,46.70
2022-12-25T05:37:25.928Z,47.90
2022-12-25T05:38:26.582Z,47.50
2022-12-25T05:39:26.338Z,44.90
2022-12-25T05:40:25.883Z,44.90
2022-12-25T05:41:30.622Z,43.60
2022-12-25T05:42:26.812Z,41.30
2022-12-25T05:43:26.184Z,42.30
2022-12-25T05:44:25.797Z,41.20
2022-12-25T05:45:26.524Z,42.30
2022-12-25T05:46:26.056Z,41.60
2022-12-25T05:47:25.685Z,43.60
2022-12-25T05:48:25.925Z,44.00
2022-12-25T05:49:25.609Z,42.90
2022-12-25T05:50:26.728Z,47.00
2022-12-25T05:51:26.161Z,43.30
2022-12-25T05:52:25.825Z,44.80
2022-12-25T05:53:25.654Z,48.90
2022-12-25T05:54:25.565Z,46.30
2022-12-25T05:55:25.550Z,44.20
2022-12-25T05:56:25.747Z,43.60
2022-12-25T05:57:25.668Z,45.70
2022-12-25T05:58:25.485Z,43.90
2022-12-25T05:59:25.471Z,44.40
2022-12-25T06:00:25.679Z,45.60
2022-12-25T06:01:26.568Z,48.10
2022-12-25T06:02:25.881Z,48.40
2022-12-25T06:03:25.626Z,46.90
2022-12-25T06:04:25.507Z,48.80
2022-12-25T06:05:25.927Z,51.30
2022-12-25T06:06:25.427Z,50.20
2022-12-25T06:07:25.528Z,50.00
2022-12-25T06:08:25.541Z,49.80
2022-12-25T06:09:25.428Z,51.70
2022-12-25T06:10:25.457Z,48.20
2022-12-25T06:11:25.375Z,40.30
2022-12-25T06:12:25.261Z,48.50
2022-12-25T06:13:25.555Z,48.10
2022-12-25T06:14:25.471Z,46.10
2022-12-25T06:15:25.328Z,43.40
2022-12-25T06:16:25.349Z,44.20
2022-12-25T06:17:25.303Z,43.30
2022-12-25T06:18:25.203Z,46.20
2022-12-25T06:19:26.732Z,43.40
2022-12-25T06:20:25.334Z,42.70
2022-12-25T06:21:25.840Z,42.10
2022-12-25T06:22:25.345Z,44.70
2022-12-25T06:23:25.479Z,45.20
2022-12-25T06:24:25.152Z,46.60
2022-12-25T06:25:25.157Z,44.70
2022-12-25T06:26:25.135Z,43.20
2022-12-25T06:27:25.091Z,44.50
2022-12-25T06:28:25.275Z,45.20
2022-12-25T06:29:25.067Z,45.90
2022-12-25T06:30:24.981Z,39.30
2022-12-25T06:31:25.124Z,43.30
2022-12-25T06:32:24.996Z,42.50
2022-12-25T06:33:25.098Z,39.00
2022-12-25T06:34:25.100Z,39.40
2022-12-25T06:35:25.116Z,36.10
2022-12-25T06:36:24.849Z,46.20
2022-12-25T06:37:24.942Z,42.30
2022-12-25T06:38:24.840Z,44.00
2022-12-25T06:39:24.955Z,40.10
2022-12-25T06:40:24.943Z,42.20
2022-12-25T06:41:24.958Z,41.80
2022-12-25T06:42:24.975Z,34.80
2022-12-25T06:43:24.877Z,40.90
2022-12-25T06:44:25.071Z,40.80
2022-12-25T06:45:26.234Z,40.60
2022-12-25T06:46:25.028Z,38.20
2022-12-25T06:47:24.902Z,34.60
2022-12-25T06:48:24.827Z,39.30
2022-12-25T06:49:24.703Z,39.00
2022-12-25T06:50:24.832Z,35.80
2022-12-25T06:51:24.736Z,42.60
2022-12-25T06:52:24.926Z,38.50
2022-12-25T06:53:24.822Z,33.50
2022-12-25T06:54:25.087Z,35.80
2022-12-25T06:55:24.653Z,42.00
2022-12-25T06:56:24.649Z,42.80
2022-12-25T06:57:24.853Z,34.30
2022-12-25T06:58:24.656Z,40.20
2022-12-25T06:59:24.665Z,36.70
2022-12-25T07:00:24.904Z,34.50
2022-12-25T07:01:24.977Z,40.70
2022-12-25T07:02:24.859Z,43.90
2022-12-25T07:03:24.772Z,43.20
2022-12-25T09:47:14.056Z,33.60
2022-12-25T09:48:02.893Z,33.10
2022-12-25T09:49:02.631Z,31.60
2022-12-25T09:50:02.275Z,28.90
2022-12-25T09:51:02.182Z,27.60
2022-12-25T09:52:26.867Z,25.20
2022-12-25T09:53:02.696Z,28.90
2022-12-25T09:54:02.314Z,24.90
2022-12-25T09:55:02.528Z,29.50
2022-12-25T09:56:04.889Z,31.90
2022-12-25T09:57:04.137Z,31.20
2022-12-25T09:58:04.087Z,32.00
2022-12-25T09:59:04.813Z,27.10
2022-12-25T10:00:04.696Z,25.30
2022-12-25T10:01:03.285Z,23.80
2022-12-25T10:02:07.282Z,27.80
2022-12-25T10:03:04.145Z,26.70
2022-12-25T10:04:02.174Z,26.60
2022-12-25T10:05:02.185Z,24.70
2022-12-25T10:06:02.109Z,32.10
2022-12-25T10:07:02.014Z,24.90
2022-12-25T10:08:02.655Z,27.60
2022-12-25T10:09:02.009Z,28.80
2022-12-25T10:10:02.133Z,28.40
2022-12-25T10:11:02.108Z,28.60
2022-12-25T10:12:02.149Z,26.70
2022-12-25T10:13:01.943Z,33.50
2022-12-25T10:14:01.949Z,30.80
2022-12-25T10:15:03.161Z,28.10
2022-12-25T10:16:02.078Z,26.20
2022-12-25T10:17:02.903Z,31.20
2022-12-25T10:18:02.100Z,27.40
2022-12-25T10:19:01.882Z,31.50
2022-12-25T10:20:02.923Z,29.10
2022-12-25T10:21:01.878Z,27.60
2022-12-25T10:22:02.052Z,26.50
2022-12-25T10:23:01.832Z,32.20
2022-12-25T10:24:01.793Z,31.60
2022-12-25T10:25:01.952Z,30.90
2022-12-25T10:26:01.819Z,26.10
2022-12-25T10:27:01.725Z,26.80
2022-12-25T10:28:02.060Z,33.50
2022-12-25T10:29:02.040Z,32.60
2022-12-25T10:30:01.874Z,26.70
2022-12-25T10:31:01.801Z,26.90
2022-12-25T10:32:01.770Z,25.50
2022-12-25T10:33:01.765Z,27.60
2022-12-25T10:34:01.665Z,27.60
2022-12-25T10:35:01.684Z,27.40
2022-12-25T10:36:01.580Z,28.60
2022-12-25T10:37:01.591Z,27.10
2022-12-25T10:38:01.629Z,25.10
2022-12-25T10:39:01.591Z,23.70
2022-12-25T10:40:01.797Z,31.90
2022-12-25T10:41:01.517Z,30.30
2022-12-25T10:42:01.609Z,31.00
2022-12-25T10:43:01.521Z,26.40
2022-12-25T10:44:01.573Z,25.40
2022-12-25T10:45:08.738Z,21.90
2022-12-25T10:46:01.641Z,22.80
2022-12-25T10:47:01.676Z,26.50
2022-12-25T10:48:07.785Z,27.90
2022-12-25T10:49:02.630Z,32.80
2022-12-25T10:50:01.519Z,33.00
2022-12-25T10:51:01.511Z,25.70
2022-12-25T10:52:01.461Z,27.70
2022-12-25T10:53:01.503Z,27.20
2022-12-25T10:54:01.404Z,27.80
2022-12-25T10:55:01.434Z,26.50
2022-12-25T10:56:01.463Z,25.50
2022-12-25T10:57:01.516Z,25.80
2022-12-25T10:58:01.319Z,31.00
2022-12-25T10:59:01.330Z,31.80
2022-12-25T11:00:01.466Z,21.00
2022-12-25T11:01:01.341Z,30.30
2022-12-25T11:02:02.208Z,37.10
2022-12-25T11:03:01.696Z,26.10
2022-12-25T11:04:01.412Z,32.30
2022-12-25T11:05:01.279Z,28.50
2022-12-25T11:06:01.343Z,26.30
2022-12-25T11:07:01.601Z,31.00
2022-12-25T11:08:01.193Z,30.00
2022-12-25T11:09:01.209Z,30.40
2022-12-25T11:10:05.077Z,24.30
2022-12-25T11:11:01.224Z,27.70
2022-12-25T11:12:01.452Z,28.10
2022-12-25T11:13:01.144Z,27.30
2022-12-25T11:14:01.250Z,30.70
2022-12-25T11:15:01.327Z,24.40
2022-12-25T11:16:01.225Z,28.40
2022-12-25T11:17:01.178Z,33.60
2022-12-25T11:18:01.174Z,26.90
2022-12-25T11:19:01.108Z,28.00
2022-12-25T11:20:01.014Z,27.70
2022-12-25T11:21:01.091Z,25.40
2022-12-25T11:22:01.114Z,24.50
2022-12-25T11:23:01.008Z,26.40
2022-12-25T11:24:00.923Z,27.10
2022-12-25T11:25:01.009Z,28.70
2022-12-25T11:26:01.096Z,23.30
2022-12-25T11:27:00.937Z,21.80
2022-12-25T11:28:01.031Z,24.00
2022-12-25T11:29:01.028Z,23.90
2022-12-25T11:30:01.036Z,30.20
2022-12-25T11:31:00.985Z,30.90
2022-12-25T11:32:00.984Z,25.50
2022-12-25T11:33:00.880Z,27.00
2022-12-25T11:34:00.876Z,27.10
2022-12-25T11:35:00.885Z,33.40
2022-12-25T11:36:01.268Z,23.40
2022-12-25T11:37:00.897Z,25.30
2022-12-25T11:38:00.918Z,27.00
2022-12-25T11:39:01.527Z,25.60
2022-12-25T11:40:00.938Z,26.30
2022-12-25T11:41:00.723Z,28.80
2022-12-25T11:42:00.767Z,26.30
2022-12-25T11:43:07.579Z,25.50
2022-12-25T11:44:01.665Z,27.70
2022-12-25T11:45:00.823Z,27.40
2022-12-25T11:46:00.682Z,26.00
2022-12-25T11:47:00.894Z,31.80
2022-12-25T11:48:00.874Z,36.20
2022-12-25T11:49:00.763Z,32.80
2022-12-25T11:50:01.235Z,24.60
2022-12-25T11:51:00.586Z,31.20
2022-12-25T11:52:00.611Z,34.70
2022-12-25T11:53:00.588Z,33.20
2022-12-25T11:54:00.507Z,30.30
2022-12-25T11:55:00.534Z,41.80
2022-12-25T11:56:00.617Z,32.20
2022-12-25T11:57:00.506Z,27.90
2022-12-25T11:58:00.519Z,29.40
2022-12-25T11:59:00.534Z,23.20
2022-12-25T12:00:00.469Z,28.90
2022-12-25T12:01:00.443Z,28.70
2022-12-25T12:02:00.580Z,29.10
2022-12-25T12:03:00.733Z,29.80
2022-12-25T12:04:01.464Z,28.50
2022-12-25T12:05:00.560Z,25.90
2022-12-25T12:06:00.377Z,29.80
2022-12-25T12:07:00.297Z,29.00
2022-12-25T12:08:00.426Z,23.70
2022-12-25T12:09:00.498Z,29.00
2022-12-25T12:10:00.395Z,27.50
2022-12-25T12:11:00.333Z,29.90
2022-12-25T12:12:00.528Z,26.50
2022-12-25T12:13:00.240Z,28.90
2022-12-25T12:14:00.350Z,28.00
2022-12-25T12:15:00.249Z,31.50
2022-12-25T12:16:00.278Z,26.70
2022-12-25T12:17:00.275Z,23.90
2022-12-25T12:18:00.253Z,27.60
2022-12-25T12:19:00.268Z,29.70
2022-12-25T12:20:00.277Z,26.20
2022-12-25T12:21:00.099Z,29.00
2022-12-25T12:22:00.171Z,25.80
2022-12-25T12:23:00.288Z,30.10
2022-12-25T12:24:00.698Z,27.40
2022-12-25T12:25:00.141Z,22.70
2022-12-25T12:26:00.112Z,27.80
2022-12-25T12:27:00.302Z,22.40
2022-12-25T12:28:04.897Z,20.50
2022-12-25T12:29:01.057Z,22.70
2022-12-25T12:30:00.196Z,24.90
2022-12-25T12:31:00.039Z,30.50
2022-12-25T12:31:59.984Z,28.50
2022-12-25T12:33:00.050Z,32.20
2022-12-25T12:33:59.937Z,27.70
2022-12-25T12:35:00.100Z,25.40
2022-12-25T12:35:59.883Z,26.10
2022-12-25T12:36:59.876Z,28.00
2022-12-25T12:37:59.868Z,25.90
2022-12-25T12:38:59.899Z,24.20
2022-12-25T12:39:59.900Z,27.30
2022-12-25T12:40:59.815Z,31.00
2022-12-25T12:41:59.921Z,27.80
2022-12-25T12:42:59.829Z,26.80
2022-12-25T12:43:59.951Z,25.10
2022-12-25T12:44:59.736Z,21.30
2022-12-25T12:45:59.910Z,22.30
2022-12-25T12:46:59.738Z,23.30
2022-12-25T12:47:59.747Z,22.00
2022-12-25T12:48:59.642Z,25.30
2022-12-25T12:49:59.782Z,28.10
2022-12-25T12:50:59.679Z,25.50
2022-12-25T12:51:59.688Z,24.80
2022-12-25T12:52:59.698Z,23.40
2022-12-25T12:53:59.671Z,26.50
2022-12-25T12:55:00.344Z,23.80
2022-12-25T12:55:59.692Z,29.10
2022-12-25T12:56:59.726Z,30.40
2022-12-25T12:57:59.625Z,29.30
2022-12-25T12:58:59.629Z,26.80
2022-12-25T13:00:04.718Z,20.90
2022-12-25T13:01:00.694Z,25.80
2022-12-25T13:01:59.700Z,24.20
2022-12-25T13:02:59.677Z,25.20
2022-12-25T13:03:59.652Z,23.90
2022-12-25T13:04:59.625Z,25.40
2022-12-25T13:05:59.559Z,25.70
2022-12-25T13:06:59.488Z,24.70
2022-12-25T13:07:59.496Z,26.40
2022-12-25T13:08:59.478Z,25.70
2022-12-25T13:09:59.383Z,25.90
2022-12-25T13:10:59.504Z,26.70
2022-12-25T13:11:59.310Z,29.90
2022-12-25T13:12:59.417Z,29.10
2022-12-25T13:13:59.333Z,27.40
2022-12-25T13:14:59.482Z,27.50
2022-12-25T13:15:59.497Z,27.60
2022-12-25T13:17:04.815Z,28.10
2022-12-25T13:17:59.333Z,23.00
2022-12-25T13:18:59.339Z,23.60
2022-12-25T13:19:59.292Z,26.90
2022-12-25T13:20:59.318Z,33.40
2022-12-25T13:22:01.136Z,30.50
2022-12-25T13:22:59.514Z,32.50
2022-12-25T13:23:59.306Z,27.90
2022-12-25T13:24:59.228Z,31.80
2022-12-25T13:25:59.250Z,26.00
2022-12-25T13:26:59.325Z,22.80
2022-12-25T13:27:59.198Z,28.60
2022-12-25T13:28:59.231Z,30.60
2022-12-25T13:29:59.236Z,28.00
2022-12-25T13:30:59.123Z,26.10
2022-12-25T13:31:59.422Z,32.20
2022-12-25T13:32:59.335Z,31.20
2022-12-25T13:33:59.059Z,31.20
2022-12-25T13:34:59.160Z,31.10
2022-12-25T13:35:59.157Z,29.70
2022-12-25T13:36:59.076Z,25.20
2022-12-25T13:37:59.117Z,27.70
2022-12-25T13:38:59.005Z,23.50
2022-12-25T13:39:59.085Z,26.90
2022-12-25T13:40:59.120Z,31.80
2022-12-25T13:41:59.031Z,33.70
2022-12-25T13:42:59.001Z,36.60
2022-12-25T13:43:59.057Z,33.80
2022-12-25T13:44:59.040Z,31.20
2022-12-25T13:45:59.100Z,36.90
2022-12-25T13:46:58.937Z,40.30
2022-12-25T13:47:59.038Z,35.70
2022-12-25T13:48:58.955Z,25.60
2022-12-25T13:49:58.925Z,25.50
2022-12-25T13:50:58.973Z,25.80
2022-12-25T13:51:58.787Z,29.10
2022-12-25T13:52:58.887Z,27.80
2022-12-25T13:53:59.116Z,30.60
2022-12-25T13:54:58.801Z,22.70
2022-12-25T13:55:59.009Z,31.30
2022-12-25T13:56:58.815Z,25.20
2022-12-25T13:57:58.724Z,28.50
2022-12-25T13:58:58.829Z,28.10
2022-12-25T13:59:58.865Z,24.40
2022-12-25T14:00:58.936Z,30.50
2022-12-25T14:01:58.920Z,27.00
2022-12-25T14:02:58.729Z,22.90
2022-12-25T14:03:58.648Z,28.90
2022-12-25T14:04:58.765Z,34.40
2022-12-25T14:05:58.665Z,27.30
2022-12-25T14:06:58.777Z,23.30
2022-12-25T14:07:58.687Z,26.10
2022-12-25T14:08:58.684Z,25.40
2022-12-25T14:09:58.684Z,28.60
2022-12-25T14:10:58.727Z,24.50
2022-12-25T14:11:58.793Z,26.30
2022-12-25T14:12:58.541Z,23.60
2022-12-25T14:13:58.580Z,25.40
2022-12-25T14:14:58.623Z,24.80
2022-12-25T14:15:58.629Z,30.10
2022-12-25T14:16:58.615Z,30.10
2022-12-25T14:17:58.537Z,23.70
2022-12-25T14:18:58.489Z,28.60
2022-12-25T14:20:03.806Z,51.80
2022-12-25T14:20:59.533Z,37.60
2022-12-25T14:21:58.507Z,35.60
2022-12-25T14:22:58.491Z,47.60
2022-12-25T14:23:58.398Z,40.10
2022-12-25T14:24:58.498Z,46.60
2022-12-25T14:25:58.401Z,54.30
2022-12-25T14:26:58.420Z,40.20
2022-12-25T14:27:58.499Z,37.90
2022-12-25T14:28:58.413Z,27.40
2022-12-25T14:29:58.428Z,27.90
2022-12-25T14:30:58.372Z,32.60
2022-12-25T14:31:58.332Z,38.80
2022-12-25T14:32:58.335Z,29.40
2022-12-25T14:33:58.244Z,27.50
2022-12-25T14:34:58.379Z,22.70
2022-12-25T14:35:58.287Z,24.60
2022-12-25T14:36:58.358Z,24.70
2022-12-25T14:37:58.185Z,25.20
2022-12-25T14:38:59.153Z,27.50
2022-12-25T14:39:58.213Z,37.20
2022-12-25T14:40:58.320Z,26.20
2022-12-25T14:41:58.518Z,25.00
2022-12-25T14:42:58.223Z,27.20
2022-12-25T14:43:58.310Z,23.00
2022-12-25T14:44:58.387Z,32.60
2022-12-25T14:45:58.081Z,31.00
2022-12-25T14:46:58.237Z,25.80
2022-12-25T14:47:58.070Z,34.60
2022-12-25T14:48:59.190Z,23.90
2022-12-25T14:49:58.043Z,28.50
2022-12-25T14:50:58.076Z,22.80
2022-12-25T14:51:58.059Z,22.50
2022-12-25T14:52:58.504Z,29.50
2022-12-25T14:53:58.942Z,21.60
2022-12-25T14:54:58.015Z,22.50
2022-12-25T14:55:58.003Z,22.50
2022-12-25T14:56:58.013Z,24.50
2022-12-25T14:57:58.034Z,25.50
2022-12-25T14:58:57.912Z,32.10
2022-12-25T14:59:58.024Z,28.70
2022-12-25T15:00:57.987Z,24.30
2022-12-25T15:01:57.946Z,24.00
2022-12-25T15:02:58.165Z,27.40
2022-12-25T15:03:57.944Z,32.00
2022-12-25T15:04:57.849Z,26.20
2022-12-25T15:05:58.887Z,31.70
2022-12-25T15:06:57.792Z,25.80
2022-12-25T15:07:57.861Z,27.00
2022-12-25T15:08:57.879Z,28.30
2022-12-25T15:10:27.231Z,24.80
2022-12-25T15:11:01.650Z,24.70
2022-12-25T15:11:57.812Z,28.50
2022-12-25T15:12:57.800Z,25.60
2022-12-25T15:13:57.726Z,25.10
2022-12-25T15:14:57.824Z,26.60
2022-12-25T15:15:57.722Z,31.00
2022-12-25T15:16:57.769Z,23.90
2022-12-25T15:17:57.854Z,29.10
2022-12-25T15:18:57.751Z,25.20
2022-12-25T15:19:57.666Z,28.20
2022-12-25T15:20:57.763Z,23.00
2022-12-25T15:21:58.118Z,23.40
2022-12-25T15:23:20.808Z,27.50
2022-12-25T15:23:58.595Z,27.80
2022-12-25T15:25:02.545Z,25.60
2022-12-25T15:25:57.605Z,21.10
2022-12-25T15:26:57.538Z,23.00
2022-12-25T15:27:57.701Z,29.50
2022-12-25T15:28:57.519Z,24.80
2022-12-25T15:30:09.803Z,24.20
2022-12-25T15:30:58.677Z,28.40
2022-12-25T15:31:57.554Z,26.90
2022-12-25T15:32:59.579Z,19.00
2022-12-25T15:33:57.565Z,22.20
2022-12-25T15:34:58.612Z,22.80